createdAt,value
2023-08-11T00:01:06.476Z,100.00
2023-08-11T00:03:34.049Z,100.00
2023-08-11T00:06:00.838Z,100.00
2023-08-11T00:08:27.425Z,100.00
2023-08-11T00:10:54.003Z,100.00
2023-08-11T00:13:20.545Z,100.00
2023-08-11T00:15:47.142Z,100.00
2023-08-11T00:18:13.681Z,100.00
2023-08-11T00:20:40.239Z,100.00
2023-08-11T00:23:06.803Z,100.00
2023-08-11T00:25:33.528Z,100.00
2023-08-11T00:28:00.278Z,100.00
2023-08-11T00:30:26.840Z,100.00
2023-08-11T00:32:53.551Z,100.00
2023-08-11T00:35:20.229Z,100.00
2023-08-11T00:37:46.794Z,100.00
2023-08-11T00:40:13.333Z,100.00
2023-08-11T00:42:40.019Z,100.00
2023-08-11T00:45:07.768Z,100.00
2023-08-11T00:47:34.467Z,100.00
2023-08-11T00:50:01.173Z,100.00
2023-08-11T00:52:27.826Z,100.00
2023-08-11T00:54:56.702Z,100.00
2023-08-11T00:57:24.025Z,100.00
2023-08-11T00:59:51.846Z,100.00
2023-08-11T01:02:18.887Z,100.00
2023-08-11T01:04:45.455Z,100.00
2023-08-11T01:07:37.297Z,100.00
2023-08-11T01:10:20.341Z,100.00
2023-08-11T01:13:06.987Z,100.00
2023-08-11T01:15:40.641Z,100.00
2023-08-11T01:18:08.401Z,100.00
2023-08-11T01:20:36.223Z,100.00
2023-08-11T01:23:05.865Z,100.00
2023-08-11T01:25:33.545Z,100.00
2023-08-11T01:28:01.098Z,100.00
2023-08-11T01:30:29.028Z,100.00
2023-08-11T01:32:55.531Z,100.00
2023-08-11T01:35:38.406Z,100.00
2023-08-11T01:38:11.297Z,100.00
2023-08-11T01:40:39.258Z,100.00
2023-08-11T01:43:08.568Z,100.00
2023-08-11T01:45:35.142Z,100.00
2023-08-11T01:48:02.837Z,100.00
2023-08-11T01:50:30.420Z,100.00
2023-08-11T01:52:57.237Z,100.00
2023-08-11T01:55:26.222Z,100.00
2023-08-11T01:57:59.098Z,100.00
2023-08-11T02:00:27.843Z,100.00
2023-08-11T02:02:55.158Z,100.00
2023-08-11T02:05:22.696Z,100.00
2023-08-11T02:07:49.196Z,100.00
2023-08-11T02:10:15.806Z,100.00
2023-08-11T02:12:42.528Z,100.00
2023-08-11T02:15:11.826Z,100.00
2023-08-11T02:17:39.179Z,100.00
2023-08-11T02:20:22.646Z,100.00
2023-08-11T02:22:50.456Z,100.00
2023-08-11T02:25:17.159Z,100.00
2023-08-11T02:27:44.766Z,100.00
2023-08-11T02:30:12.726Z,100.00
2023-08-11T02:32:40.533Z,100.00
2023-08-11T02:35:07.460Z,100.00
2023-08-11T02:37:34.287Z,100.00
2023-08-11T02:40:00.815Z,100.00
2023-08-11T02:42:27.320Z,100.00
2023-08-11T02:44:54.148Z,100.00
2023-08-11T02:47:20.686Z,100.00
2023-08-11T02:49:47.184Z,100.00
2023-08-11T02:52:14.176Z,100.00
2023-08-11T02:54:40.788Z,100.00
2023-08-11T02:57:07.365Z,100.00
2023-08-11T02:59:33.979Z,100.00
2023-08-11T03:02:00.515Z,100.00
2023-08-11T03:04:27.094Z,100.00
2023-08-11T03:06:53.687Z,100.00
2023-08-11T03:09:20.245Z,100.00
2023-08-11T03:11:46.742Z,100.00
2023-08-11T03:14:13.402Z,100.00
2023-08-11T03:16:40.023Z,100.00
2023-08-11T03:19:06.542Z,100.00
2023-08-11T03:21:33.273Z,100.00
2023-08-11T03:24:00.693Z,100.00
2023-08-11T03:26:27.269Z,100.00
2023-08-11T03:28:53.790Z,100.00
2023-08-11T03:31:20.345Z,100.00
2023-08-11T03:33:47.018Z,100.00
2023-08-11T03:36:14.117Z,100.00
2023-08-11T03:38:40.835Z,100.00
2023-08-11T03:41:07.731Z,100.00
2023-08-11T03:43:34.272Z,100.00
2023-08-11T03:46:01.160Z,100.00
2023-08-11T03:48:27.717Z,100.00
2023-08-11T03:50:59.575Z,100.00
2023-08-11T03:53:26.098Z,100.00
2023-08-11T03:55:52.594Z,100.00
2023-08-11T03:58:19.212Z,100.00
2023-08-11T04:00:45.783Z,100.00
2023-08-11T04:03:12.368Z,100.00
2023-08-11T04:05:39.033Z,100.00
2023-08-11T04:08:05.707Z,100.00
2023-08-11T04:10:32.614Z,100.00
2023-08-11T04:12:59.214Z,100.00
2023-08-11T04:15:25.901Z,100.00
2023-08-11T04:17:53.260Z,100.00
2023-08-11T04:20:20.018Z,100.00
2023-08-11T04:22:46.535Z,100.00
2023-08-11T04:25:13.557Z,100.00
2023-08-11T04:27:40.738Z,100.00
2023-08-11T04:30:09.121Z,100.00
2023-08-11T04:32:35.662Z,100.00
2023-08-11T04:35:02.289Z,100.00
2023-08-11T04:37:28.844Z,100.00
2023-08-11T04:39:55.404Z,100.00
2023-08-11T04:42:21.931Z,100.00
2023-08-11T04:44:48.947Z,100.00
2023-08-11T04:47:16.025Z,100.00
2023-08-11T04:49:43.307Z,100.00
2023-08-11T04:52:10.754Z,100.00
2023-08-11T04:54:37.429Z,100.00
2023-08-11T04:57:04.251Z,100.00
2023-08-11T04:59:30.825Z,100.00
2023-08-11T05:01:57.421Z,100.00
2023-08-11T05:04:24.002Z,100.00
2023-08-11T05:06:50.503Z,100.00
2023-08-11T05:09:17.014Z,100.00
2023-08-11T05:11:43.554Z,100.00
2023-08-11T05:14:10.030Z,100.00
2023-08-11T05:16:36.830Z,100.00
2023-08-11T05:19:05.147Z,100.00
2023-08-11T05:21:31.800Z,100.00
2023-08-11T05:23:58.320Z,100.00
2023-08-11T05:26:24.948Z,100.00
2023-08-11T05:28:51.545Z,100.00
2023-08-11T05:31:18.259Z,100.00
2023-08-11T05:33:45.074Z,100.00
2023-08-11T05:36:11.606Z,100.00
2023-08-11T05:38:38.252Z,100.00
2023-08-11T05:41:04.842Z,100.00
2023-08-11T05:43:31.467Z,100.00
2023-08-11T05:45:58.576Z,100.00
2023-08-11T05:48:25.162Z,100.00
2023-08-11T05:50:51.663Z,100.00
2023-08-11T05:53:18.252Z,100.00
2023-08-11T05:55:44.817Z,100.00
2023-08-11T05:58:11.515Z,100.00
2023-08-11T06:00:38.060Z,100.00
2023-08-11T06:03:04.678Z,100.00
2023-08-11T06:05:31.282Z,100.00
2023-08-11T06:08:06.169Z,100.00
2023-08-11T06:10:34.320Z,100.00
2023-08-11T06:13:00.973Z,100.00
2023-08-11T06:15:27.571Z,100.00
2023-08-11T06:17:54.166Z,100.00
2023-08-11T06:20:34.267Z,100.00
2023-08-11T06:23:06.290Z,100.00
2023-08-11T06:25:32.836Z,100.00
2023-08-11T06:27:59.377Z,100.00
2023-08-11T06:30:30.552Z,100.00
2023-08-11T06:32:57.853Z,100.00
2023-08-11T06:35:25.461Z,100.00
2023-08-11T06:37:52.135Z,100.00
2023-08-11T06:40:19.019Z,100.00
2023-08-11T06:42:45.692Z,100.00
2023-08-11T06:45:12.401Z,100.00
2023-08-11T06:47:38.967Z,100.00
2023-08-11T06:50:06.062Z,100.00
2023-08-11T06:52:32.737Z,100.00
2023-08-11T06:54:59.293Z,100.00
2023-08-11T06:57:25.877Z,100.00
2023-08-11T06:59:52.430Z,100.00
2023-08-11T07:02:19.097Z,100.00
2023-08-11T07:04:46.053Z,100.00
2023-08-11T07:07:12.558Z,100.00
2023-08-11T07:09:39.210Z,100.00
2023-08-11T07:12:05.894Z,100.00
2023-08-11T07:14:32.515Z,100.00
2023-08-11T07:16:59.072Z,100.00
2023-08-11T07:19:25.800Z,100.00
2023-08-11T07:21:52.285Z,100.00
2023-08-11T07:24:18.801Z,100.00
2023-08-11T07:26:45.396Z,100.00
2023-08-11T07:29:12.050Z,100.00
2023-08-11T07:31:40.617Z,100.00
2023-08-11T07:34:07.162Z,100.00
2023-08-11T07:36:33.656Z,100.00
2023-08-11T07:39:12.744Z,100.00
2023-08-11T07:41:47.104Z,100.00
2023-08-11T07:44:13.734Z,100.00
2023-08-11T07:46:40.313Z,100.00
2023-08-11T07:49:07.222Z,100.00
2023-08-11T07:51:33.852Z,100.00
2023-08-11T07:54:00.460Z,100.00
2023-08-11T07:56:27.125Z,100.00
2023-08-11T07:58:54.242Z,100.00
2023-08-11T08:01:21.084Z,100.00
2023-08-11T08:03:47.758Z,100.00
2023-08-11T08:06:15.718Z,100.00
2023-08-11T08:08:42.241Z,100.00
2023-08-11T08:11:08.830Z,99.78
2023-08-11T08:13:35.397Z,100.00
2023-08-11T08:16:01.971Z,100.00
2023-08-11T08:18:28.504Z,100.00
2023-08-11T08:20:55.098Z,99.38
2023-08-11T08:23:22.027Z,100.00
2023-08-11T08:25:48.601Z,100.00
2023-08-11T08:28:15.146Z,99.33
2023-08-11T08:30:42.386Z,98.72
2023-08-11T08:33:09.119Z,96.27
2023-08-11T08:35:37.208Z,93.51
2023-08-11T08:38:04.403Z,95.77
2023-08-11T08:40:32.419Z,94.58
2023-08-11T08:42:59.046Z,95.44
2023-08-11T08:45:26.837Z,92.80
2023-08-11T08:47:55.960Z,95.32
2023-08-11T08:50:24.033Z,91.07
2023-08-11T08:52:53.025Z,90.50
2023-08-11T08:55:20.022Z,88.23
2023-08-11T08:57:48.380Z,91.28
2023-08-11T09:00:15.408Z,91.71
2023-08-11T09:02:43.304Z,86.72
2023-08-11T09:05:10.198Z,86.31
2023-08-11T09:07:36.828Z,87.43
2023-08-11T09:10:03.492Z,85.05
2023-08-11T09:12:30.111Z,88.19
2023-08-11T09:14:57.295Z,89.80
2023-08-11T09:17:25.321Z,84.33
2023-08-11T09:19:53.555Z,83.04
2023-08-11T09:22:26.790Z,82.51
2023-08-11T09:24:54.978Z,81.24
2023-08-11T09:27:22.904Z,82.78
2023-08-11T09:29:50.916Z,82.91
2023-08-11T09:32:17.606Z,82.81
2023-08-11T09:34:44.905Z,85.17
2023-08-11T09:37:11.834Z,82.18
2023-08-11T09:39:38.502Z,85.35
2023-08-11T09:42:05.431Z,84.77
2023-08-11T09:44:31.983Z,83.27
2023-08-11T09:46:58.957Z,83.19
2023-08-11T09:49:25.726Z,83.60
2023-08-11T09:51:55.255Z,78.89
2023-08-11T09:54:22.629Z,80.58
2023-08-11T09:56:50.504Z,81.27
2023-08-11T09:59:20.190Z,81.15
2023-08-11T10:01:47.559Z,80.44
2023-08-11T10:04:23.941Z,81.73
2023-08-11T10:06:54.331Z,78.53
2023-08-11T10:09:24.457Z,79.88
2023-08-11T10:11:53.771Z,79.84
2023-08-11T10:14:22.584Z,78.79
2023-08-11T10:16:49.153Z,81.80
2023-08-11T10:19:16.018Z,79.81
2023-08-11T10:21:42.624Z,77.85
2023-08-11T10:24:10.008Z,80.11
2023-08-11T10:26:37.603Z,78.08
2023-08-11T10:29:04.749Z,80.47
2023-08-11T10:31:33.123Z,79.88
2023-08-11T10:34:06.959Z,79.88
2023-08-11T10:36:34.094Z,78.25
2023-08-11T10:39:01.907Z,76.32
2023-08-11T10:41:29.568Z,74.31
2023-08-11T10:43:57.327Z,74.40
2023-08-11T10:46:32.081Z,76.42
2023-08-11T10:48:58.659Z,76.32
2023-08-11T10:51:30.675Z,76.61
2023-08-11T10:54:00.775Z,76.44
2023-08-11T10:56:35.988Z,78.08
2023-08-11T10:59:26.600Z,77.44
2023-08-11T11:01:55.047Z,75.05
2023-08-11T11:04:23.527Z,77.25
2023-08-11T11:06:54.727Z,76.42
2023-08-11T11:09:22.670Z,78.89
2023-08-11T11:11:51.822Z,75.93
2023-08-11T11:14:18.651Z,74.78
2023-08-11T11:16:45.302Z,74.14
2023-08-11T11:19:11.873Z,75.81
2023-08-11T11:21:41.135Z,80.88
2023-08-11T11:24:09.110Z,76.73
2023-08-11T11:26:35.838Z,76.11
2023-08-11T11:29:04.199Z,76.11
2023-08-11T11:31:33.179Z,76.10
2023-08-11T11:33:59.982Z,77.61
2023-08-11T11:36:26.860Z,73.65
2023-08-11T11:38:53.438Z,75.24
2023-08-11T11:41:21.034Z,75.86
2023-08-11T11:43:49.215Z,78.69
2023-08-11T11:46:17.799Z,80.27
2023-08-11T11:48:52.389Z,75.58
2023-08-11T11:51:22.064Z,78.23
2023-08-11T11:53:51.569Z,74.22
2023-08-11T11:56:19.117Z,74.19
2023-08-11T11:58:49.352Z,76.31
2023-08-11T12:01:22.625Z,76.79
2023-08-11T12:03:51.251Z,74.58
2023-08-11T12:06:19.744Z,74.45
2023-08-11T12:08:49.482Z,76.74
2023-08-11T12:11:23.886Z,73.68
2023-08-11T12:13:51.086Z,76.06
2023-08-11T12:16:18.576Z,71.83
2023-08-11T12:18:45.201Z,78.31
2023-08-11T12:21:12.311Z,70.86
2023-08-11T12:23:39.408Z,73.53
2023-08-11T12:26:06.203Z,68.39
2023-08-11T12:28:32.762Z,71.29
2023-08-11T12:30:59.302Z,69.43
2023-08-11T12:33:26.658Z,70.95
2023-08-11T12:35:53.303Z,72.92
2023-08-11T12:38:21.848Z,68.42
2023-08-11T12:40:49.686Z,68.25
2023-08-11T12:43:17.091Z,67.46
2023-08-11T12:45:48.720Z,69.36
2023-08-11T12:48:15.918Z,69.96
2023-08-11T12:50:43.024Z,68.72
2023-08-11T12:53:10.175Z,70.37
2023-08-11T12:55:40.421Z,67.14
2023-08-11T12:58:07.309Z,68.37
2023-08-11T13:00:36.230Z,70.33
2023-08-11T13:03:03.097Z,71.99
2023-08-11T13:05:29.757Z,71.30
2023-08-11T13:07:57.298Z,72.69
2023-08-11T13:10:23.855Z,72.09
2023-08-11T13:12:50.602Z,73.91
2023-08-11T13:15:17.379Z,72.41
2023-08-11T13:17:45.858Z,74.54
2023-08-11T13:20:13.501Z,74.74
2023-08-11T13:22:41.184Z,73.27
2023-08-11T13:25:08.268Z,73.70
2023-08-11T13:27:35.111Z,75.60
2023-08-11T13:30:02.174Z,77.12
2023-08-11T13:32:29.633Z,77.09
2023-08-11T13:34:56.214Z,74.88
2023-08-11T13:37:22.694Z,79.46
2023-08-11T13:39:49.218Z,78.69
2023-08-11T13:42:17.583Z,76.87
2023-08-11T13:44:44.344Z,78.75
2023-08-11T13:47:11.015Z,79.95
2023-08-11T13:49:37.535Z,77.06
2023-08-11T13:52:04.347Z,74.22
2023-08-11T13:54:31.025Z,72.58
2023-08-11T13:56:57.560Z,74.29
2023-08-11T13:59:24.075Z,75.00
2023-08-11T14:01:50.608Z,77.56
2023-08-11T14:04:17.920Z,76.41
2023-08-11T14:06:44.437Z,72.68
2023-08-11T14:09:10.903Z,77.73
2023-08-11T14:11:38.814Z,76.62
2023-08-11T14:14:05.570Z,74.94
2023-08-11T14:16:32.158Z,74.78
2023-08-11T14:18:58.827Z,76.85
2023-08-11T14:21:25.369Z,77.67
2023-08-11T14:23:51.962Z,78.42
2023-08-11T14:26:18.585Z,78.14
2023-08-11T14:28:45.403Z,77.92
2023-08-11T14:31:12.230Z,77.11
2023-08-11T14:33:42.050Z,76.91
2023-08-11T14:36:12.876Z,78.68
2023-08-11T14:38:40.352Z,77.87
2023-08-11T14:41:07.769Z,79.92
2023-08-11T14:43:35.029Z,80.39
2023-08-11T14:46:01.717Z,78.72
2023-08-11T14:48:28.559Z,78.45
2023-08-11T14:50:55.459Z,78.51
2023-08-11T14:53:24.257Z,77.67
2023-08-11T14:55:51.725Z,78.27
2023-08-11T14:58:18.854Z,81.21
2023-08-11T15:00:45.662Z,77.98
2023-08-11T15:03:13.728Z,79.76
2023-08-11T15:05:41.011Z,80.49
2023-08-11T15:08:08.310Z,80.18
2023-08-11T15:10:35.526Z,79.59
2023-08-11T15:13:05.204Z,81.18
2023-08-11T15:15:32.633Z,82.14
2023-08-11T15:17:59.295Z,82.08
2023-08-11T15:20:25.994Z,83.84
2023-08-11T15:22:52.712Z,86.01
2023-08-11T15:25:20.097Z,86.01
2023-08-11T15:27:47.082Z,86.30
2023-08-11T15:30:14.064Z,85.95
2023-08-11T15:32:40.762Z,85.69
2023-08-11T15:35:09.070Z,87.35
2023-08-11T15:37:36.525Z,87.59
2023-08-11T15:40:05.248Z,88.26
2023-08-11T15:42:31.943Z,87.18
2023-08-11T15:44:58.588Z,87.15
2023-08-11T15:47:25.112Z,86.50
2023-08-11T15:49:51.646Z,84.43
2023-08-11T15:52:18.134Z,84.25
2023-08-11T15:54:44.759Z,84.20
2023-08-11T15:57:11.287Z,82.77
2023-08-11T15:59:37.833Z,84.24
2023-08-11T16:02:10.053Z,83.85
2023-08-11T16:04:37.716Z,85.81
2023-08-11T16:07:04.345Z,85.92
2023-08-11T16:09:30.936Z,85.14
2023-08-11T16:11:57.606Z,85.18
2023-08-11T16:14:27.785Z,85.30
2023-08-11T16:16:55.092Z,86.37
2023-08-11T16:19:21.717Z,84.97
2023-08-11T16:21:48.745Z,85.95
2023-08-11T16:24:15.497Z,86.69
2023-08-11T16:26:42.139Z,86.53
2023-08-11T16:29:08.771Z,87.14
2023-08-11T16:31:35.493Z,89.60
2023-08-11T16:34:02.159Z,89.23
2023-08-11T16:36:28.869Z,89.63
2023-08-11T16:38:55.437Z,90.29
2023-08-11T16:41:22.095Z,91.59
2023-08-11T16:43:50.981Z,91.10
2023-08-11T16:46:19.444Z,91.46
2023-08-11T16:48:46.207Z,90.35
2023-08-11T16:51:15.086Z,91.21
2023-08-11T16:53:42.443Z,92.85
2023-08-11T16:56:09.315Z,93.14
2023-08-11T16:58:36.699Z,92.79
2023-08-11T17:01:03.295Z,92.78
2023-08-11T17:03:30.098Z,92.84
2023-08-11T17:05:56.698Z,93.09
2023-08-11T17:08:23.203Z,92.64
2023-08-11T17:10:49.709Z,93.25
2023-08-11T17:13:16.217Z,94.05
2023-08-11T17:15:42.815Z,96.25
2023-08-11T17:18:09.367Z,95.31
2023-08-11T17:20:36.445Z,94.90
2023-08-11T17:23:03.008Z,95.15
2023-08-11T17:25:29.520Z,94.17
2023-08-11T17:27:55.996Z,94.54
2023-08-11T17:30:22.530Z,94.11
2023-08-11T17:32:49.351Z,94.87
2023-08-11T17:35:16.109Z,95.16
2023-08-11T17:37:42.637Z,95.00
2023-08-11T17:40:09.925Z,95.58
2023-08-11T17:42:36.550Z,96.26
2023-08-11T17:45:03.493Z,97.58
2023-08-11T17:47:30.060Z,97.41
2023-08-11T17:49:56.595Z,97.79
2023-08-11T17:52:23.260Z,98.19
2023-08-11T17:54:50.678Z,98.31
2023-08-11T17:57:17.242Z,98.90
2023-08-11T17:59:43.724Z,99.25
2023-08-11T18:02:10.569Z,99.66
2023-08-11T18:04:37.462Z,99.77
2023-08-11T18:07:04.111Z,99.79
2023-08-11T18:09:30.708Z,99.93
2023-08-11T18:11:57.221Z,99.82
2023-08-11T18:14:24.156Z,100.00
2023-08-11T18:16:50.801Z,100.00
2023-08-11T18:19:17.326Z,100.00
2023-08-11T18:21:43.860Z,100.00
2023-08-11T18:24:10.454Z,100.00
2023-08-11T18:26:36.936Z,100.00
2023-08-11T18:29:03.983Z,100.00
2023-08-11T18:31:30.753Z,100.00
2023-08-11T18:33:57.400Z,100.00
2023-08-11T18:36:23.980Z,100.00
2023-08-11T18:38:50.607Z,100.00
2023-08-11T18:41:17.076Z,100.00
2023-08-11T18:43:43.603Z,100.00
2023-08-11T18:46:10.186Z,100.00
2023-08-11T18:48:36.836Z,100.00
2023-08-11T18:51:03.414Z,100.00
2023-08-11T18:53:29.924Z,100.00
2023-08-11T18:55:56.501Z,100.00
2023-08-11T18:58:23.434Z,100.00
2023-08-11T19:00:49.989Z,100.00
2023-08-11T19:03:16.542Z,100.00
2023-08-11T19:05:43.298Z,100.00
2023-08-11T19:08:09.862Z,100.00
2023-08-11T19:10:36.536Z,100.00
2023-08-11T19:13:03.288Z,100.00
2023-08-11T19:15:30.671Z,100.00
2023-08-11T19:17:57.280Z,100.00
2023-08-11T19:20:23.816Z,100.00
2023-08-11T19:22:50.427Z,100.00
2023-08-11T19:25:17.077Z,100.00
2023-08-11T19:27:43.561Z,100.00
2023-08-11T19:30:10.691Z,100.00
2023-08-11T19:32:37.253Z,100.00
2023-08-11T19:35:05.194Z,100.00
2023-08-11T19:37:31.844Z,100.00
2023-08-11T19:39:58.478Z,100.00
2023-08-11T19:42:25.009Z,100.00
2023-08-11T19:44:51.777Z,100.00
2023-08-11T19:47:18.325Z,100.00
2023-08-11T19:49:44.864Z,100.00
2023-08-11T19:52:11.972Z,100.00
2023-08-11T19:54:39.196Z,100.00
2023-08-11T19:57:06.304Z,100.00
2023-08-11T19:59:32.943Z,100.00
2023-08-11T20:01:59.569Z,100.00
2023-08-11T20:04:26.185Z,100.00
2023-08-11T20:06:52.727Z,100.00
2023-08-11T20:09:20.395Z,100.00
2023-08-11T20:11:47.128Z,100.00
2023-08-11T20:14:13.772Z,100.00
2023-08-11T20:16:40.361Z,100.00
2023-08-11T20:19:06.927Z,100.00
2023-08-11T20:21:33.790Z,100.00
2023-08-11T20:24:00.335Z,100.00
2023-08-11T20:26:27.365Z,100.00
2023-08-11T20:28:54.747Z,100.00
2023-08-11T20:31:21.653Z,100.00
2023-08-11T20:33:48.251Z,100.00
2023-08-11T20:36:15.001Z,100.00
2023-08-11T20:38:41.521Z,100.00
2023-08-11T20:41:08.166Z,100.00
2023-08-11T20:43:34.718Z,100.00
2023-08-11T20:46:01.652Z,100.00
2023-08-11T20:48:28.898Z,100.00
2023-08-11T20:51:03.332Z,100.00
2023-08-11T20:53:30.530Z,100.00
2023-08-11T20:56:00.655Z,100.00
2023-08-11T20:58:28.060Z,100.00
2023-08-11T21:00:55.160Z,100.00
2023-08-11T21:03:22.134Z,100.00
2023-08-11T21:05:48.736Z,100.00
2023-08-11T21:08:17.369Z,100.00
2023-08-11T21:10:45.543Z,100.00
2023-08-11T21:13:12.986Z,100.00
2023-08-11T21:15:40.140Z,100.00
2023-08-11T21:18:08.585Z,100.00
2023-08-11T21:20:36.568Z,100.00
2023-08-11T21:23:04.353Z,100.00
2023-08-11T21:25:30.838Z,100.00
2023-08-11T21:27:57.409Z,100.00
2023-08-11T21:30:24.014Z,100.00
2023-08-11T21:32:52.108Z,100.00
2023-08-11T21:35:19.722Z,100.00
2023-08-11T21:37:46.318Z,100.00
2023-08-11T21:40:13.221Z,100.00
2023-08-11T21:42:39.771Z,100.00
2023-08-11T21:45:06.721Z,100.00
2023-08-11T21:47:35.712Z,100.00
2023-08-11T21:50:02.957Z,100.00
2023-08-11T21:52:29.500Z,100.00
2023-08-11T21:54:56.010Z,100.00
2023-08-11T21:57:23.402Z,100.00
2023-08-11T21:59:50.143Z,100.00
2023-08-11T22:02:17.247Z,100.00
2023-08-11T22:04:46.444Z,100.00
2023-08-11T22:07:13.653Z,100.00
2023-08-11T22:09:40.720Z,100.00
2023-08-11T22:12:07.563Z,100.00
2023-08-11T22:14:34.439Z,100.00
2023-08-11T22:17:01.477Z,100.00
2023-08-11T22:19:30.442Z,100.00
2023-08-11T22:21:57.834Z,100.00
2023-08-11T22:24:38.501Z,100.00
2023-08-11T22:27:06.837Z,100.00
2023-08-11T22:29:33.556Z,100.00
2023-08-11T22:32:00.149Z,100.00
2023-08-11T22:34:26.678Z,100.00
2023-08-11T22:36:53.161Z,100.00
2023-08-11T22:39:19.851Z,100.00
2023-08-11T22:41:46.346Z,100.00
2023-08-11T22:44:12.886Z,100.00
2023-08-11T22:46:39.629Z,100.00
2023-08-11T22:49:06.170Z,100.00
2023-08-11T22:51:32.709Z,100.00
2023-08-11T22:53:59.277Z,100.00
2023-08-11T22:56:25.863Z,100.00
2023-08-11T22:58:52.379Z,100.00
2023-08-11T23:01:18.891Z,100.00
2023-08-11T23:03:45.547Z,100.00
2023-08-11T23:06:12.427Z,100.00
2023-08-11T23:08:38.907Z,100.00
2023-08-11T23:11:05.493Z,100.00
2023-08-11T23:13:32.099Z,100.00
2023-08-11T23:16:00.757Z,100.00
2023-08-11T23:18:27.995Z,100.00
2023-08-11T23:20:54.767Z,100.00
2023-08-11T23:23:21.275Z,100.00
2023-08-11T23:25:47.990Z,100.00
2023-08-11T23:28:14.495Z,100.00
2023-08-11T23:30:41.209Z,100.00
2023-08-11T23:33:07.926Z,100.00
2023-08-11T23:35:38.845Z,100.00
2023-08-11T23:38:05.952Z,100.00
2023-08-11T23:40:32.701Z,100.00
2023-08-11T23:42:59.204Z,100.00
2023-08-11T23:45:25.880Z,100.00
2023-08-11T23:47:52.922Z,100.00
2023-08-11T23:50:19.652Z,100.00
2023-08-11T23:52:46.229Z,100.00
2023-08-11T23:55:13.473Z,100.00
2023-08-11T23:57:40.093Z,100.00
